sensor_id;sensor_type;location;lat;lon;timestamp;pressure;altitude;pressure_sealevel;temperature;humidity
12951;BME280;6540;50.858;7.232;2023-05-10T00:02:18;51735.53;;;-142.34;30.63
12951;BME280;6540;50.858;7.232;2023-05-10T00:04:43;51697.19;;;-142.34;30.79
12951;BME280;6540;50.858;7.232;2023-05-10T00:07:08;51673.00;;;-142.34;29.47
12951;BME280;6540;50.858;7.232;2023-05-10T00:09:35;51701.22;;;-142.34;30.52
12951;BME280;6540;50.858;7.232;2023-05-10T00:12:00;51721.41;;;-142.34;31.40
12951;BME280;6540;50.858;7.232;2023-05-10T00:14:26;51677.03;;;-142.34;30.34
12951;BME280;6540;50.858;7.232;2023-05-10T00:16:51;51695.19;;;-142.34;29.82
12951;BME280;6540;50.858;7.232;2023-05-10T00:19:16;51697.19;;;-142.34;31.00
12951;BME280;6540;50.858;7.232;2023-05-10T00:21:42;51733.50;;;-142.34;30.60
12951;BME280;6540;50.858;7.232;2023-05-10T00:24:07;51717.38;;;-142.34;30.02
12951;BME280;6540;50.858;7.232;2023-05-10T00:26:33;51689.13;;;-142.34;30.52
12951;BME280;6540;50.858;7.232;2023-05-10T00:28:58;51729.47;;;-142.34;30.59
12951;BME280;6540;50.858;7.232;2023-05-10T00:31:23;51697.19;;;-142.34;30.42
12951;BME280;6540;50.858;7.232;2023-05-10T00:33:49;51689.13;;;-142.34;29.96
12951;BME280;6540;50.858;7.232;2023-05-10T00:36:14;51705.25;;;-142.34;30.17
12951;BME280;6540;50.858;7.232;2023-05-10T00:38:39;51693.16;;;-142.34;30.10
12951;BME280;6540;50.858;7.232;2023-05-10T00:41:05;51640.72;;;-142.34;29.81
12951;BME280;6540;50.858;7.232;2023-05-10T00:43:31;51681.06;;;-142.34;30.00
12951;BME280;6540;50.858;7.232;2023-05-10T00:45:57;51646.75;;;-142.34;30.21
12951;BME280;6540;50.858;7.232;2023-05-10T00:48:23;51660.88;;;-142.34;29.78
12951;BME280;6540;50.858;7.232;2023-05-10T00:50:48;51660.88;;;-142.34;30.07
12951;BME280;6540;50.858;7.232;2023-05-10T00:53:14;51662.91;;;-142.34;29.75
12951;BME280;6540;50.858;7.232;2023-05-10T00:55:40;51666.94;;;-142.34;29.44
12951;BME280;6540;50.858;7.232;2023-05-10T00:58:05;51693.16;;;-142.34;29.60
12951;BME280;6540;50.858;7.232;2023-05-10T01:00:32;51723.41;;;-142.34;30.47
12951;BME280;6540;50.858;7.232;2023-05-10T01:02:58;51689.13;;;-142.34;30.83
12951;BME280;6540;50.858;7.232;2023-05-10T01:05:23;51677.03;;;-142.34;29.82
12951;BME280;6540;50.858;7.232;2023-05-10T01:07:49;51683.06;;;-142.34;29.56
12951;BME280;6540;50.858;7.232;2023-05-10T01:10:15;51673.00;;;-142.34;30.39
12951;BME280;6540;50.858;7.232;2023-05-10T01:12:42;51652.81;;;-142.34;30.55
12951;BME280;6540;50.858;7.232;2023-05-10T01:15:09;51687.09;;;-142.34;30.82
12951;BME280;6540;50.858;7.232;2023-05-10T01:17:37;51687.09;;;-142.34;29.90
12951;BME280;6540;50.858;7.232;2023-05-10T01:20:05;51677.03;;;-142.34;29.63
12951;BME280;6540;50.858;7.232;2023-05-10T01:34:02;51679.03;;;-142.34;29.54
12951;BME280;6540;50.858;7.232;2023-05-10T01:36:36;51713.34;;;-142.34;31.37
12951;BME280;6540;50.858;7.232;2023-05-10T01:41:55;51695.19;;;-142.34;30.29
12951;BME280;6540;50.858;7.232;2023-05-10T01:47:14;51648.78;;;-142.34;29.77
12951;BME280;6540;50.858;7.232;2023-05-10T01:50:02;51679.03;;;-142.34;30.09
12951;BME280;6540;50.858;7.232;2023-05-10T01:52:34;51677.03;;;-142.34;30.43
12951;BME280;6540;50.858;7.232;2023-05-10T01:55:06;51715.34;;;-142.34;30.78
12951;BME280;6540;50.858;7.232;2023-05-10T01:57:37;51699.22;;;-142.34;31.77
12951;BME280;6540;50.858;7.232;2023-05-10T02:00:06;51705.25;;;-142.34;31.05
12951;BME280;6540;50.858;7.232;2023-05-10T02:02:36;51660.88;;;-142.34;29.69
12951;BME280;6540;50.858;7.232;2023-05-10T02:05:03;51701.22;;;-142.34;30.58
12951;BME280;6540;50.858;7.232;2023-05-10T02:07:31;51689.13;;;-142.34;30.30
12951;BME280;6540;50.858;7.232;2023-05-10T02:09:59;51703.25;;;-142.34;30.87
12951;BME280;6540;50.858;7.232;2023-05-10T02:12:25;51721.41;;;-142.34;30.93
12951;BME280;6540;50.858;7.232;2023-05-10T02:14:53;51697.19;;;-142.34;32.06
12951;BME280;6540;50.858;7.232;2023-05-10T02:17:20;51745.59;;;-142.34;31.04
12951;BME280;6540;50.858;7.232;2023-05-10T02:19:47;51725.44;;;-142.34;32.17
12951;BME280;6540;50.858;7.232;2023-05-10T02:22:13;51717.38;;;-142.34;32.02
12951;BME280;6540;50.858;7.232;2023-05-10T02:24:41;51721.41;;;-142.34;32.06
12951;BME280;6540;50.858;7.232;2023-05-10T02:27:07;51727.44;;;-142.34;31.41
12951;BME280;6540;50.858;7.232;2023-05-10T02:29:34;51721.41;;;-142.34;31.75
12951;BME280;6540;50.858;7.232;2023-05-10T02:32:01;51673.00;;;-142.34;31.18
12951;BME280;6540;50.858;7.232;2023-05-10T02:34:27;51699.22;;;-142.34;30.99
12951;BME280;6540;50.858;7.232;2023-05-10T02:36:54;51677.03;;;-142.34;29.80
12951;BME280;6540;50.858;7.232;2023-05-10T02:39:21;51737.53;;;-142.34;31.57
12951;BME280;6540;50.858;7.232;2023-05-10T02:41:49;51723.41;;;-142.34;31.36
12951;BME280;6540;50.858;7.232;2023-05-10T02:44:17;51701.22;;;-142.34;32.00
12951;BME280;6540;50.858;7.232;2023-05-10T02:46:43;51729.47;;;-142.34;31.08
12951;BME280;6540;50.858;7.232;2023-05-10T02:49:09;51711.31;;;-142.34;30.97
12951;BME280;6540;50.858;7.232;2023-05-10T02:51:37;51717.38;;;-142.34;31.43
12951;BME280;6540;50.858;7.232;2023-05-10T02:54:12;51725.44;;;-142.34;30.72
12951;BME280;6540;50.858;7.232;2023-05-10T02:56:43;51725.44;;;-142.34;31.20
12951;BME280;6540;50.858;7.232;2023-05-10T02:59:12;51733.50;;;-142.34;31.19
12951;BME280;6540;50.858;7.232;2023-05-10T03:01:37;51691.16;;;-142.34;30.64
12951;BME280;6540;50.858;7.232;2023-05-10T03:04:03;51687.09;;;-142.34;31.17
12951;BME280;6540;50.858;7.232;2023-05-10T03:06:28;51719.38;;;-142.34;31.03
12951;BME280;6540;50.858;7.232;2023-05-10T03:08:54;51699.22;;;-142.34;30.74
12951;BME280;6540;50.858;7.232;2023-05-10T03:11:50;51652.81;;;-142.34;29.63
12951;BME280;6540;50.858;7.232;2023-05-10T03:17:30;51737.53;;;-142.34;31.88
12951;BME280;6540;50.858;7.232;2023-05-10T03:20:06;51745.59;;;-142.34;32.47
12951;BME280;6540;50.858;7.232;2023-05-10T03:22:38;51735.53;;;-142.34;31.20
12951;BME280;6540;50.858;7.232;2023-05-10T03:25:07;51703.25;;;-142.34;31.33
12951;BME280;6540;50.858;7.232;2023-05-10T03:27:35;51693.16;;;-142.34;30.76
12951;BME280;6540;50.858;7.232;2023-05-10T03:30:02;51713.34;;;-142.34;31.36
12951;BME280;6540;50.858;7.232;2023-05-10T03:32:29;51703.25;;;-142.34;31.18
12951;BME280;6540;50.858;7.232;2023-05-10T03:34:55;51713.34;;;-142.34;30.54
12951;BME280;6540;50.858;7.232;2023-05-10T03:37:20;51717.38;;;-142.34;30.86
12951;BME280;6540;50.858;7.232;2023-05-10T03:39:45;51717.38;;;-142.34;30.68
12951;BME280;6540;50.858;7.232;2023-05-10T03:42:11;51749.66;;;-142.34;30.65
12951;BME280;6540;50.858;7.232;2023-05-10T03:44:38;51693.16;;;-142.34;30.06
12951;BME280;6540;50.858;7.232;2023-05-10T03:47:03;51737.53;;;-142.34;29.87
12951;BME280;6540;50.858;7.232;2023-05-10T03:49:29;51668.97;;;-142.34;29.63
12951;BME280;6540;50.858;7.232;2023-05-10T03:51:54;51681.06;;;-142.34;29.66
12951;BME280;6540;50.858;7.232;2023-05-10T03:54:20;51664.91;;;-142.34;29.36
12951;BME280;6540;50.858;7.232;2023-05-10T03:56:45;51668.97;;;-142.34;29.11
12951;BME280;6540;50.858;7.232;2023-05-10T03:59:13;51689.13;;;-142.34;29.76
12951;BME280;6540;50.858;7.232;2023-05-10T04:01:38;51677.03;;;-142.34;29.91
12951;BME280;6540;50.858;7.232;2023-05-10T04:04:03;51656.84;;;-142.34;29.31
12951;BME280;6540;50.858;7.232;2023-05-10T04:06:29;51644.75;;;-142.34;29.14
12951;BME280;6540;50.858;7.232;2023-05-10T04:08:54;51616.50;;;-142.34;28.81
12951;BME280;6540;50.858;7.232;2023-05-10T04:11:20;51624.56;;;-142.34;29.07
12951;BME280;6540;50.858;7.232;2023-05-10T04:13:47;51648.78;;;-142.34;28.97
12951;BME280;6540;50.858;7.232;2023-05-10T04:16:12;51648.78;;;-142.34;29.60
12951;BME280;6540;50.858;7.232;2023-05-10T04:18:37;51648.78;;;-142.34;28.73
12951;BME280;6540;50.858;7.232;2023-05-10T04:21:03;51628.63;;;-142.34;28.50
12951;BME280;6540;50.858;7.232;2023-05-10T04:23:28;51660.88;;;-142.34;29.04
12951;BME280;6540;50.858;7.232;2023-05-10T04:25:59;51596.34;;;-142.34;28.74
12951;BME280;6540;50.858;7.232;2023-05-10T04:28:25;51626.59;;;-142.34;28.72
12951;BME280;6540;50.858;7.232;2023-05-10T04:30:50;51628.63;;;-142.34;28.74
12951;BME280;6540;50.858;7.232;2023-05-10T04:33:16;51658.88;;;-142.34;28.58
12951;BME280;6540;50.858;7.232;2023-05-10T04:35:41;51608.44;;;-142.34;28.94
12951;BME280;6540;50.858;7.232;2023-05-10T04:38:07;51604.41;;;-142.34;28.83
12951;BME280;6540;50.858;7.232;2023-05-10T04:40:32;51632.66;;;-142.34;28.58
12951;BME280;6540;50.858;7.232;2023-05-10T04:42:59;51620.53;;;-142.34;28.85
12951;BME280;6540;50.858;7.232;2023-05-10T04:45:24;51668.97;;;-142.34;29.82
12951;BME280;6540;50.858;7.232;2023-05-10T04:47:49;51693.16;;;-142.34;30.01
12951;BME280;6540;50.858;7.232;2023-05-10T04:50:15;51673.00;;;-142.34;29.64
12951;BME280;6540;50.858;7.232;2023-05-10T04:52:40;51660.88;;;-142.34;29.60
12951;BME280;6540;50.858;7.232;2023-05-10T04:55:06;51673.00;;;-142.34;29.68
12951;BME280;6540;50.858;7.232;2023-05-10T04:57:33;51689.13;;;-142.34;29.67
12951;BME280;6540;50.858;7.232;2023-05-10T04:59:59;51660.88;;;-142.34;29.43
12951;BME280;6540;50.858;7.232;2023-05-10T05:02:25;51658.88;;;-142.34;29.38
12951;BME280;6540;50.858;7.232;2023-05-10T05:04:50;51673.00;;;-142.34;29.52
12951;BME280;6540;50.858;7.232;2023-05-10T05:07:16;51642.72;;;-142.34;28.46
12951;BME280;6540;50.858;7.232;2023-05-10T05:09:41;51632.66;;;-142.34;28.93
12951;BME280;6540;50.858;7.232;2023-05-10T05:12:06;51652.81;;;-142.34;28.79
12951;BME280;6540;50.858;7.232;2023-05-10T05:14:32;51664.91;;;-142.34;29.34
12951;BME280;6540;50.858;7.232;2023-05-10T05:16:57;51701.22;;;-142.34;30.07
12951;BME280;6540;50.858;7.232;2023-05-10T05:19:22;51664.91;;;-142.34;30.38
12951;BME280;6540;50.858;7.232;2023-05-10T05:21:48;51717.38;;;-142.34;30.12
12951;BME280;6540;50.858;7.232;2023-05-10T05:24:13;51660.88;;;-142.34;29.90
12951;BME280;6540;50.858;7.232;2023-05-10T05:26:38;51685.09;;;-142.34;30.11
12951;BME280;6540;50.858;7.232;2023-05-10T05:29:04;51683.06;;;-142.34;30.59
12951;BME280;6540;50.858;7.232;2023-05-10T05:31:29;51679.03;;;-142.34;30.29
12951;BME280;6540;50.858;7.232;2023-05-10T05:33:55;51683.06;;;-142.34;30.48
12951;BME280;6540;50.858;7.232;2023-05-10T05:36:21;51725.44;;;-142.34;31.18
12951;BME280;6540;50.858;7.232;2023-05-10T05:38:46;51693.16;;;-142.34;30.44
12951;BME280;6540;50.858;7.232;2023-05-10T05:41:12;51685.09;;;-142.34;29.93
12951;BME280;6540;50.858;7.232;2023-05-10T05:43:37;51693.16;;;-142.34;30.48
12951;BME280;6540;50.858;7.232;2023-05-10T05:46:02;51701.22;;;-142.34;29.75
12951;BME280;6540;50.858;7.232;2023-05-10T05:48:29;51691.16;;;-142.34;29.86
12951;BME280;6540;50.858;7.232;2023-05-10T05:50:55;51683.06;;;-142.34;30.07
12951;BME280;6540;50.858;7.232;2023-05-10T05:53:24;51687.09;;;-142.34;31.43
12951;BME280;6540;50.858;7.232;2023-05-10T05:55:58;51677.03;;;-142.34;29.97
12951;BME280;6540;50.858;7.232;2023-05-10T05:58:24;51705.25;;;-142.34;30.17
12951;BME280;6540;50.858;7.232;2023-05-10T06:00:50;51679.03;;;-142.34;29.83
12951;BME280;6540;50.858;7.232;2023-05-10T06:03:15;51681.06;;;-142.34;29.53
12951;BME280;6540;50.858;7.232;2023-05-10T06:05:41;51677.03;;;-142.34;30.00
12951;BME280;6540;50.858;7.232;2023-05-10T06:08:06;51664.91;;;-142.34;30.20
12951;BME280;6540;50.858;7.232;2023-05-10T06:10:31;51699.22;;;-142.34;29.78
12951;BME280;6540;50.858;7.232;2023-05-10T06:12:57;51673.00;;;-142.34;30.14
12951;BME280;6540;50.858;7.232;2023-05-10T06:15:22;51681.06;;;-142.34;30.31
12951;BME280;6540;50.858;7.232;2023-05-10T06:17:47;51691.16;;;-142.34;30.17
12951;BME280;6540;50.858;7.232;2023-05-10T06:20:15;51670.97;;;-142.34;31.18
12951;BME280;6540;50.858;7.232;2023-05-10T06:22:41;51685.09;;;-142.34;30.27
12951;BME280;6540;50.858;7.232;2023-05-10T06:25:06;51648.78;;;-142.34;29.29
12951;BME280;6540;50.858;7.232;2023-05-10T06:27:32;51673.00;;;-142.34;29.68
12951;BME280;6540;50.858;7.232;2023-05-10T06:29:57;51664.91;;;-142.34;29.78
12951;BME280;6540;50.858;7.232;2023-05-10T06:32:23;51675.00;;;-142.34;30.72
12951;BME280;6540;50.858;7.232;2023-05-10T06:34:48;51741.56;;;-142.34;31.45
12951;BME280;6540;50.858;7.232;2023-05-10T06:37:13;51668.97;;;-142.34;29.49
12951;BME280;6540;50.858;7.232;2023-05-10T06:39:39;51644.75;;;-142.34;29.62
12951;BME280;6540;50.858;7.232;2023-05-10T06:42:04;51681.06;;;-142.34;30.92
12951;BME280;6540;50.858;7.232;2023-05-10T06:44:30;51685.09;;;-142.34;30.75
12951;BME280;6540;50.858;7.232;2023-05-10T06:46:55;51697.19;;;-142.34;31.59
12951;BME280;6540;50.858;7.232;2023-05-10T06:49:21;51683.06;;;-142.34;31.02
12951;BME280;6540;50.858;7.232;2023-05-10T06:51:46;51703.25;;;-142.34;30.41
12951;BME280;6540;50.858;7.232;2023-05-10T06:54:12;51677.03;;;-142.34;30.06
12951;BME280;6540;50.858;7.232;2023-05-10T06:56:37;51644.75;;;-142.34;29.61
12951;BME280;6540;50.858;7.232;2023-05-10T06:59:02;51675.00;;;-142.34;29.66
12951;BME280;6540;50.858;7.232;2023-05-10T07:01:28;51695.19;;;-142.34;29.63
12951;BME280;6540;50.858;7.232;2023-05-10T07:03:53;51685.09;;;-142.34;30.42
12951;BME280;6540;50.858;7.232;2023-05-10T07:06:18;51683.06;;;-142.34;29.98
12951;BME280;6540;50.858;7.232;2023-05-10T07:08:44;51675.00;;;-142.34;30.48
12951;BME280;6540;50.858;7.232;2023-05-10T07:11:09;51685.09;;;-142.34;30.31
12951;BME280;6540;50.858;7.232;2023-05-10T07:13:37;51670.97;;;-142.34;29.82
12951;BME280;6540;50.858;7.232;2023-05-10T07:16:06;51683.06;;;-142.34;30.12
12951;BME280;6540;50.858;7.232;2023-05-10T07:18:32;51673.00;;;-142.34;30.43
12951;BME280;6540;50.858;7.232;2023-05-10T07:20:58;51691.16;;;-142.34;31.09
12951;BME280;6540;50.858;7.232;2023-05-10T07:23:23;51658.88;;;-142.34;30.66
12951;BME280;6540;50.858;7.232;2023-05-10T07:25:49;51685.09;;;-142.34;30.72
12951;BME280;6540;50.858;7.232;2023-05-10T07:28:16;51703.25;;;-142.34;30.14
12951;BME280;6540;50.858;7.232;2023-05-10T07:30:45;51644.75;;;-142.34;29.61
12951;BME280;6540;50.858;7.232;2023-05-10T07:33:12;51630.63;;;-142.34;29.18
12951;BME280;6540;50.858;7.232;2023-05-10T07:35:38;51632.66;;;-142.34;29.00
12951;BME280;6540;50.858;7.232;2023-05-10T07:38:03;51648.78;;;-142.34;29.56
12951;BME280;6540;50.858;7.232;2023-05-10T07:40:29;51648.78;;;-142.34;29.50
12951;BME280;6540;50.858;7.232;2023-05-10T07:42:55;51614.50;;;-142.34;28.63
12951;BME280;6540;50.858;7.232;2023-05-10T07:45:21;51644.75;;;-142.34;28.99
12951;BME280;6540;50.858;7.232;2023-05-10T07:47:46;51632.66;;;-142.34;29.00
12951;BME280;6540;50.858;7.232;2023-05-10T07:50:12;51636.69;;;-142.34;28.90
12951;BME280;6540;50.858;7.232;2023-05-10T07:52:37;51648.78;;;-142.34;29.02
12951;BME280;6540;50.858;7.232;2023-05-10T07:55:02;51660.88;;;-142.34;29.58
12951;BME280;6540;50.858;7.232;2023-05-10T07:57:28;51673.00;;;-142.34;29.65
12951;BME280;6540;50.858;7.232;2023-05-10T07:59:53;51664.91;;;-142.34;29.29
12951;BME280;6540;50.858;7.232;2023-05-10T08:02:18;51693.16;;;-142.34;30.31
12951;BME280;6540;50.858;7.232;2023-05-10T08:04:44;51681.06;;;-142.34;30.48
12951;BME280;6540;50.858;7.232;2023-05-10T08:07:09;51717.38;;;-142.34;31.26
12951;BME280;6540;50.858;7.232;2023-05-10T08:09:35;51697.19;;;-142.34;30.09
12951;BME280;6540;50.858;7.232;2023-05-10T08:12:01;51701.22;;;-142.34;31.67
12951;BME280;6540;50.858;7.232;2023-05-10T08:14:28;51673.00;;;-142.34;30.35
12951;BME280;6540;50.858;7.232;2023-05-10T08:16:54;51689.13;;;-142.34;29.86
12951;BME280;6540;50.858;7.232;2023-05-10T08:19:19;51733.50;;;-142.34;31.65
12951;BME280;6540;50.858;7.232;2023-05-10T08:21:46;51677.03;;;-142.34;30.41
12951;BME280;6540;50.858;7.232;2023-05-10T08:24:11;51658.88;;;-142.34;29.27
12951;BME280;6540;50.858;7.232;2023-05-10T08:26:37;51675.00;;;-142.34;29.69
12951;BME280;6540;50.858;7.232;2023-05-10T08:29:02;51673.00;;;-142.34;30.22
12951;BME280;6540;50.858;7.232;2023-05-10T08:34:50;51616.50;;;-142.34;28.82
12951;BME280;6540;50.858;7.232;2023-05-10T08:37:15;51646.75;;;-142.34;29.80
12951;BME280;6540;50.858;7.232;2023-05-10T08:39:41;51644.75;;;-142.34;29.85
12951;BME280;6540;50.858;7.232;2023-05-10T08:42:07;51634.66;;;-142.34;29.87
12951;BME280;6540;50.858;7.232;2023-05-10T08:44:35;51650.81;;;-142.34;29.77
12951;BME280;6540;50.858;7.232;2023-05-10T08:47:06;51677.03;;;-142.34;30.64
12951;BME280;6540;50.858;7.232;2023-05-10T08:49:32;51664.91;;;-142.34;30.31
12951;BME280;6540;50.858;7.232;2023-05-10T08:51:59;51679.03;;;-142.34;31.29
12951;BME280;6540;50.858;7.232;2023-05-10T08:54:27;51677.03;;;-142.34;30.49
12951;BME280;6540;50.858;7.232;2023-05-10T08:56:52;51693.16;;;-142.34;30.66
12951;BME280;6540;50.858;7.232;2023-05-10T08:59:18;51664.91;;;-142.34;30.03
12951;BME280;6540;50.858;7.232;2023-05-10T09:01:44;51640.72;;;-142.34;29.01
12951;BME280;6540;50.858;7.232;2023-05-10T09:04:12;51640.72;;;-142.34;29.26
12951;BME280;6540;50.858;7.232;2023-05-10T09:06:37;51622.56;;;-142.34;29.53
12951;BME280;6540;50.858;7.232;2023-05-10T09:09:03;51628.63;;;-142.34;29.60
12951;BME280;6540;50.858;7.232;2023-05-10T09:11:29;51598.34;;;-142.34;29.51
12951;BME280;6540;50.858;7.232;2023-05-10T09:13:55;51608.44;;;-142.34;29.04
12951;BME280;6540;50.858;7.232;2023-05-10T09:16:21;51620.53;;;-142.34;29.49
12951;BME280;6540;50.858;7.232;2023-05-10T09:18:47;51588.28;;;-142.34;28.93
12951;BME280;6540;50.858;7.232;2023-05-10T09:21:13;51600.38;;;-142.34;29.88
12951;BME280;6540;50.858;7.232;2023-05-10T09:23:42;51608.44;;;-142.34;28.78
12951;BME280;6540;50.858;7.232;2023-05-10T09:26:08;51652.81;;;-142.34;30.24
12951;BME280;6540;50.858;7.232;2023-05-10T09:28:34;51693.16;;;-142.34;31.04
12951;BME280;6540;50.858;7.232;2023-05-10T09:31:15;51693.16;;;-142.34;30.53
12951;BME280;6540;50.858;7.232;2023-05-10T09:33:48;51677.03;;;-142.34;31.04
12951;BME280;6540;50.858;7.232;2023-05-10T09:36:14;51695.19;;;-142.34;30.45
12951;BME280;6540;50.858;7.232;2023-05-10T09:38:46;51677.03;;;-142.34;30.96
12951;BME280;6540;50.858;7.232;2023-05-10T09:41:19;51670.97;;;-142.34;30.73
12951;BME280;6540;50.858;7.232;2023-05-10T09:43:46;51701.22;;;-142.34;31.04
12951;BME280;6540;50.858;7.232;2023-05-10T09:46:11;51616.50;;;-142.34;29.01
12951;BME280;6540;50.858;7.232;2023-05-10T09:48:42;51650.81;;;-142.34;29.51
12951;BME280;6540;50.858;7.232;2023-05-10T09:51:08;51620.53;;;-142.34;29.85
12951;BME280;6540;50.858;7.232;2023-05-10T09:53:33;51693.16;;;-142.34;30.66
12951;BME280;6540;50.858;7.232;2023-05-10T09:55:58;51673.00;;;-142.34;30.19
12951;BME280;6540;50.858;7.232;2023-05-10T09:58:24;51695.19;;;-142.34;30.82
12951;BME280;6540;50.858;7.232;2023-05-10T10:00:50;51628.63;;;-142.34;29.73
12951;BME280;6540;50.858;7.232;2023-05-10T10:03:20;51662.91;;;-142.34;30.32
12951;BME280;6540;50.858;7.232;2023-05-10T10:05:46;51638.69;;;-142.34;29.49
12951;BME280;6540;50.858;7.232;2023-05-10T10:08:13;51620.53;;;-142.34;29.92
12951;BME280;6540;50.858;7.232;2023-05-10T10:10:39;51596.34;;;-142.34;29.31
12951;BME280;6540;50.858;7.232;2023-05-10T10:13:10;51681.06;;;-142.34;29.04
12951;BME280;6540;50.858;7.232;2023-05-10T10:15:35;51620.53;;;-142.34;29.06
12951;BME280;6540;50.858;7.232;2023-05-10T10:18:01;51668.97;;;-142.34;30.89
12951;BME280;6540;50.858;7.232;2023-05-10T10:20:28;51622.56;;;-142.34;28.87
12951;BME280;6540;50.858;7.232;2023-05-10T10:22:54;51636.69;;;-142.34;29.75
12951;BME280;6540;50.858;7.232;2023-05-10T10:25:20;51644.75;;;-142.34;31.46
12951;BME280;6540;50.858;7.232;2023-05-10T10:30:42;51650.81;;;-142.34;29.65
12951;BME280;6540;50.858;7.232;2023-05-10T10:33:33;51648.78;;;-142.34;29.58
12951;BME280;6540;50.858;7.232;2023-05-10T10:36:02;51600.38;;;-142.34;29.46
12951;BME280;6540;50.858;7.232;2023-05-10T10:41:34;51640.72;;;-142.34;28.79
12951;BME280;6540;50.858;7.232;2023-05-10T10:49:49;51588.28;;;-142.34;28.55
12951;BME280;6540;50.858;7.232;2023-05-10T10:52:26;51576.16;;;-142.34;28.73
12951;BME280;6540;50.858;7.232;2023-05-10T10:57:28;51642.72;;;-142.34;29.37
12951;BME280;6540;50.858;7.232;2023-05-10T11:00:18;51648.78;;;-142.34;30.17
12951;BME280;6540;50.858;7.232;2023-05-10T11:02:44;51650.81;;;-142.34;30.22
12951;BME280;6540;50.858;7.232;2023-05-10T11:05:41;51580.19;;;-142.34;28.06
12951;BME280;6540;50.858;7.232;2023-05-10T11:10:32;51535.81;;;-142.34;28.43
12951;BME280;6540;50.858;7.232;2023-05-10T11:13:02;51560.03;;;-142.34;27.45
12951;BME280;6540;50.858;7.232;2023-05-10T11:15:40;51558.00;;;-142.34;28.54
12951;BME280;6540;50.858;7.232;2023-05-10T11:18:17;51616.50;;;-142.34;29.10
12951;BME280;6540;50.858;7.232;2023-05-10T11:20:44;51592.31;;;-142.34;28.70
12951;BME280;6540;50.858;7.232;2023-05-10T11:23:13;51608.44;;;-142.34;28.83
12951;BME280;6540;50.858;7.232;2023-05-10T11:25:48;51604.41;;;-142.34;29.44
12951;BME280;6540;50.858;7.232;2023-05-10T11:28:14;51624.56;;;-142.34;29.83
12951;BME280;6540;50.858;7.232;2023-05-10T11:30:40;51646.75;;;-142.34;30.95
12951;BME280;6540;50.858;7.232;2023-05-10T11:33:07;51666.94;;;-142.34;30.16
12951;BME280;6540;50.858;7.232;2023-05-10T11:35:40;51620.53;;;-142.34;28.74
12951;BME280;6540;50.858;7.232;2023-05-10T11:38:10;51596.34;;;-142.34;28.68
12951;BME280;6540;50.858;7.232;2023-05-10T11:40:36;51604.41;;;-142.34;29.35
12951;BME280;6540;50.858;7.232;2023-05-10T11:43:02;51592.31;;;-142.34;28.78
12951;BME280;6540;50.858;7.232;2023-05-10T11:45:29;51535.81;;;-142.34;27.30
12951;BME280;6540;50.858;7.232;2023-05-10T11:47:57;51531.78;;;-142.34;28.00
12951;BME280;6540;50.858;7.232;2023-05-10T11:50:22;51564.06;;;-142.34;28.36
12951;BME280;6540;50.858;7.232;2023-05-10T11:52:52;51600.38;;;-142.34;29.12
12951;BME280;6540;50.858;7.232;2023-05-10T11:55:17;51662.91;;;-142.34;29.11
12951;BME280;6540;50.858;7.232;2023-05-10T11:57:43;51624.56;;;-142.34;29.49
12951;BME280;6540;50.858;7.232;2023-05-10T12:00:11;51564.06;;;-142.34;28.56
12951;BME280;6540;50.858;7.232;2023-05-10T12:02:37;51547.94;;;-142.34;28.96
12951;BME280;6540;50.858;7.232;2023-05-10T12:05:05;51582.22;;;-142.34;29.17
12951;BME280;6540;50.858;7.232;2023-05-10T12:07:31;51673.00;;;-142.34;29.73
12951;BME280;6540;50.858;7.232;2023-05-10T12:10:08;51660.88;;;-142.34;29.73
12951;BME280;6540;50.858;7.232;2023-05-10T12:12:44;51656.84;;;-142.34;28.99
12951;BME280;6540;50.858;7.232;2023-05-10T12:15:20;51650.81;;;-142.34;29.48
12951;BME280;6540;50.858;7.232;2023-05-10T12:17:47;51636.69;;;-142.34;30.83
12951;BME280;6540;50.858;7.232;2023-05-10T12:20:18;51610.47;;;-142.34;28.77
12951;BME280;6540;50.858;7.232;2023-05-10T12:22:50;51608.44;;;-142.34;28.53
12951;BME280;6540;50.858;7.232;2023-05-10T12:25:17;51604.41;;;-142.34;29.01
12951;BME280;6540;50.858;7.232;2023-05-10T12:27:54;51572.13;;;-142.34;28.12
12951;BME280;6540;50.858;7.232;2023-05-10T12:30:25;51604.41;;;-142.34;29.09
12951;BME280;6540;50.858;7.232;2023-05-10T12:32:51;51590.28;;;-142.34;28.63
12951;BME280;6540;50.858;7.232;2023-05-10T12:35:17;51590.28;;;-142.34;28.15
12951;BME280;6540;50.858;7.232;2023-05-10T12:37:47;51660.88;;;-142.34;29.60
12951;BME280;6540;50.858;7.232;2023-05-10T12:40:12;51644.75;;;-142.34;28.09
12951;BME280;6540;50.858;7.232;2023-05-10T12:42:38;51598.34;;;-142.34;27.15
12951;BME280;6540;50.858;7.232;2023-05-10T12:45:05;51610.47;;;-142.34;28.14
12951;BME280;6540;50.858;7.232;2023-05-10T12:47:32;51604.41;;;-142.34;28.06
12951;BME280;6540;50.858;7.232;2023-05-10T12:50:00;51606.44;;;-142.34;28.22
12951;BME280;6540;50.858;7.232;2023-05-10T12:52:26;51592.31;;;-142.34;27.95
12951;BME280;6540;50.858;7.232;2023-05-10T12:54:52;51588.28;;;-142.34;27.75
12951;BME280;6540;50.858;7.232;2023-05-10T12:57:18;51568.09;;;-142.34;27.75
12951;BME280;6540;50.858;7.232;2023-05-10T12:59:43;51588.28;;;-142.34;26.78
12951;BME280;6540;50.858;7.232;2023-05-10T13:02:09;51535.81;;;-142.34;27.16
12951;BME280;6540;50.858;7.232;2023-05-10T13:04:35;51612.47;;;-142.34;28.43
12951;BME280;6540;50.858;7.232;2023-05-10T13:07:02;51614.50;;;-142.34;27.80
12951;BME280;6540;50.858;7.232;2023-05-10T13:09:27;51654.84;;;-142.34;28.73
12951;BME280;6540;50.858;7.232;2023-05-10T13:11:55;51572.13;;;-142.34;26.75
12951;BME280;6540;50.858;7.232;2023-05-10T13:14:21;51620.53;;;-142.34;28.44
12951;BME280;6540;50.858;7.232;2023-05-10T13:16:47;51612.47;;;-142.34;27.96
12951;BME280;6540;50.858;7.232;2023-05-10T13:19:13;51574.16;;;-142.34;27.28
12951;BME280;6540;50.858;7.232;2023-05-10T13:21:38;51630.63;;;-142.34;28.34
12951;BME280;6540;50.858;7.232;2023-05-10T13:24:06;51592.31;;;-142.34;27.14
12951;BME280;6540;50.858;7.232;2023-05-10T13:26:31;51572.13;;;-142.34;27.75
12951;BME280;6540;50.858;7.232;2023-05-10T13:28:57;51596.34;;;-142.34;27.56
12951;BME280;6540;50.858;7.232;2023-05-10T13:31:22;51620.53;;;-142.34;27.77